Terminal Aerodrome Forecast
Issued by NWS

Home | Current Version | Previous Version | Text Only | Print | Product List | Glossary On
Versions: 1 2 3 4 5 6 7 8 9 10 11 12
000
FTUS45 KABQ 291100 RRA
TAFGUP
TAF
KGUP 291143Z 2912/3012 VRB06KT P6SM SCT040 OVC120
     FM291700 06010KT P6SM SCT040 OVC090
     FM300200 10013KT P6SM VCSH SCT040 OVC060
      TEMPO 3006/3010 2SM -RASN BR OVC012=

USA.gov is the U.S. government's official web portal to all federal, state and local government web resources and services.